Time;durP1;ratioP1;P1;durP2;ratioP2;P2;SDS_P1;SDS_P2;PMS_P1;PMS_P2;Temp;Humidity;BMP_temperature;BMP_pressure;BME280_temperature;BME280_humidity;BME280_pressure;Samples;Min_cycle;Max_cycle;Signal;HPM_P1;HPM_P2
2024/01/28 00:02:24;;;;;;;6.03;3.53;;;3.50;99.90;;;;;;5001461;28;20038;-22
2024/01/28 00:04:50;;;;;;;8.53;3.97;;;5.50;99.90;;;;;;4995178;28;20434;-23
2024/01/28 00:07:16;;;;;;;6.97;3.47;;;3.40;99.90;;;;;;5012343;28;20036;-21
2024/01/28 00:09:44;;;;;;;7.27;3.30;;;1.10;99.90;;;;;;4999339;28;20399;-22
2024/01/28 00:12:10;;;;;;;8.68;3.67;;;3.30;99.90;;;;;;5010714;28;20120;-22
2024/01/28 00:14:37;;;;;;;5.13;3.28;;;3.30;99.90;;;;;;4995783;28;20048;-23
2024/01/28 00:17:03;;;;;;;8.53;4.87;;;3.30;99.90;;;;;;5014936;28;20356;-21
2024/01/28 00:19:29;;;;;;;7.80;3.38;;;3.30;99.90;;;;;;5011423;28;20041;-23
2024/01/28 00:21:54;;;;;;;6.53;3.53;;;3.30;99.90;;;;;;4998045;28;20565;-22
2024/01/28 00:24:21;;;;;;;6.83;3.50;;;3.30;99.90;;;;;;5010059;28;20117;-23
2024/01/28 00:26:47;;;;;;;5.45;3.20;;;3.50;99.90;;;;;;5005166;28;20041;-22
2024/01/28 00:29:13;;;;;;;7.97;3.50;;;3.30;99.90;;;;;;5011574;28;20402;-21
2024/01/28 00:31:38;;;;;;;9.18;3.75;;;3.20;99.90;;;;;;5014902;28;20073;-22
2024/01/28 00:34:04;;;;;;;7.47;3.30;;;3.30;99.90;;;;;;4980353;28;20572;-22
2024/01/28 00:36:30;;;;;;;7.03;3.38;;;3.30;99.90;;;;;;5013151;28;20054;-23
2024/01/28 00:38:56;;;;;;;7.18;3.75;;;3.30;99.90;;;;;;5013025;28;20231;-23
2024/01/28 00:41:28;;;;;;;7.83;3.40;;;3.30;99.90;;;;;;4996790;28;20517;-24
2024/01/28 00:43:54;;;;;;;8.10;3.53;;;3.30;99.90;;;;;;5013468;28;20436;-22
2024/01/28 00:46:22;;;;;;;7.25;3.47;;;3.30;99.90;;;;;;4998890;28;20160;-22
2024/01/28 00:48:48;;;;;;;6.45;3.50;;;3.30;99.90;;;;;;5014727;28;20044;-21
2024/01/28 00:51:14;;;;;;;6.80;3.33;;;3.20;99.90;;;;;;5011323;28;20042;-23
2024/01/28 00:53:40;;;;;;;6.10;3.25;;;3.20;99.90;;;;;;4999853;28;20037;-22
2024/01/28 00:56:06;;;;;;;6.47;3.22;;;3.20;99.90;;;;;;5002277;28;20049;-21
2024/01/28 00:58:33;;;;;;;6.15;3.35;;;3.20;99.90;;;;;;4982347;28;20512;-22
2024/01/28 01:00:58;;;;;;;6.30;3.23;;;3.20;99.90;;;;;;4991795;28;20065;-22
2024/01/28 01:03:24;;;;;;;6.30;3.40;;;3.10;99.90;;;;;;5012153;28;20183;-21
2024/01/28 01:05:51;;;;;;;6.00;3.13;;;3.10;99.90;;;;;;5013496;28;20029;-21
2024/01/28 01:08:16;;;;;;;7.40;3.63;;;3.10;99.90;;;;;;4995615;28;20044;-20
2024/01/28 01:10:42;;;;;;;6.13;3.30;;;3.10;99.90;;;;;;5014191;28;20119;-20
2024/01/28 01:13:08;;;;;;;7.75;3.25;;;3.00;99.90;;;;;;4995141;28;20033;-20
2024/01/28 01:15:34;;;;;;;7.93;3.30;;;3.00;99.90;;;;;;5013799;28;20557;-19
2024/01/28 01:18:00;;;;;;;7.75;3.70;;;3.00;99.90;;;;;;5006947;28;20041;-20
2024/01/28 01:20:25;;;;;;;6.90;3.43;;;2.90;99.90;;;;;;4983072;28;20073;-21
2024/01/28 01:22:53;;;;;;;6.75;3.40;;;3.00;99.90;;;;;;4997939;28;20065;-23
2024/01/28 01:25:19;;;;;;;6.43;3.45;;;3.00;99.90;;;;;;5000084;28;20030;-22
2024/01/28 01:27:48;;;;;;;6.20;3.47;;;2.90;99.90;;;;;;4993305;28;20548;-22
2024/01/28 01:30:15;;;;;;;6.90;3.53;;;2.90;99.90;;;;;;5012338;28;20038;-19
2024/01/28 01:32:41;;;;;;;6.70;3.38;;;2.90;99.90;;;;;;5000444;28;20627;-19
2024/01/28 01:35:11;;;;;;;6.60;3.03;;;3.00;99.90;;;;;;5012351;28;20033;-19
2024/01/28 01:37:37;;;;;;;6.57;3.50;;;2.90;99.90;;;;;;5013367;28;20037;-19
2024/01/28 01:40:04;;;;;;;6.70;3.33;;;2.90;99.90;;;;;;4997873;28;20710;-18
2024/01/28 01:42:30;;;;;;;7.03;3.58;;;2.90;99.90;;;;;;5010425;28;20611;-20
2024/01/28 01:44:55;;;;;;;7.13;3.30;;;2.80;99.90;;;;;;5000400;28;20033;-19
2024/01/28 01:47:22;;;;;;;6.95;3.33;;;2.80;99.90;;;;;;4997551;28;20065;-20
2024/01/28 01:49:48;;;;;;;6.57;3.33;;;2.80;99.90;;;;;;4982593;28;20052;-18
2024/01/28 01:52:16;;;;;;;6.10;3.23;;;2.80;99.90;;;;;;4993808;28;20416;-19
2024/01/28 01:54:46;;;;;;;8.45;3.28;;;2.80;99.90;;;;;;5014213;28;20029;-18
2024/01/28 01:57:12;;;;;;;4.95;2.95;;;2.80;99.90;;;;;;5011029;28;20367;-20
2024/01/28 01:59:38;;;;;;;7.53;3.42;;;3.00;99.90;;;;;;5012599;28;20352;-19
2024/01/28 02:02:08;;;;;;;5.23;3.17;;;2.80;99.90;;;;;;5013419;28;20125;-18
2024/01/28 02:04:34;;;;;;;6.35;3.00;;;2.80;99.90;;;;;;4991370;28;20037;-19
2024/01/28 02:07:00;;;;;;;6.05;3.20;;;2.80;99.90;;;;;;5012187;28;20048;-18
2024/01/28 02:09:26;;;;;;;5.70;3.20;;;2.70;99.90;;;;;;5013439;28;20026;-18
2024/01/28 02:11:51;;;;;;;6.87;3.30;;;2.70;99.90;;;;;;4998413;28;20042;-20
2024/01/28 02:14:24;;;;;;;5.88;3.22;;;2.70;99.90;;;;;;5007883;28;20076;-20
2024/01/28 02:16:50;;;;;;;5.65;2.88;;;2.70;99.90;;;;;;5011842;28;20307;-18
2024/01/28 02:19:17;;;;;;;5.93;3.03;;;2.60;99.90;;;;;;5011163;28;20123;-19
2024/01/28 02:21:43;;;;;;;5.65;2.92;;;2.60;99.90;;;;;;5007869;28;20046;-20
2024/01/28 02:24:09;;;;;;;5.05;3.00;;;2.50;99.90;;;;;;4994073;28;20462;-18
2024/01/28 02:26:35;;;;;;;5.57;2.70;;;2.60;99.90;;;;;;4993158;28;20049;-17
2024/01/28 02:29:00;;;;;;;5.13;2.33;;;2.50;99.90;;;;;;5011017;28;20624;-19
2024/01/28 02:31:26;;;;;;;5.53;2.50;;;2.50;99.90;;;;;;5010323;28;20302;-19
2024/01/28 02:33:52;;;;;;;6.53;3.10;;;2.50;99.90;;;;;;5012003;28;20311;-19
2024/01/28 02:36:17;;;;;;;7.10;2.80;;;2.40;99.90;;;;;;4999841;28;20050;-19
2024/01/28 02:38:43;;;;;;;5.37;2.90;;;2.50;99.90;;;;;;5010158;28;20089;-19
2024/01/28 02:41:09;;;;;;;5.75;2.70;;;2.50;99.90;;;;;;5002158;28;20037;-23
2024/01/28 02:43:35;;;;;;;4.30;2.40;;;2.50;99.90;;;;;;5013738;28;20061;-26
2024/01/28 02:46:00;;;;;;;4.95;2.15;;;0.40;99.90;;;;;;5009237;28;20042;-22
2024/01/28 02:48:26;;;;;;;5.90;2.57;;;4.70;99.90;;;;;;4982962;28;20050;-25
2024/01/28 02:50:52;;;;;;;5.57;2.72;;;;;;;;;;5007630;28;20048;-19
2024/01/28 02:53:18;;;;;;;5.10;2.57;;;1.40;99.90;;;;;;5010537;28;20044;-20
2024/01/28 02:55:43;;;;;;;5.17;2.30;;;2.50;99.90;;;;;;4999122;28;20288;-19
2024/01/28 02:58:09;;;;;;;3.93;2.30;;;2.50;99.90;;;;;;5013883;28;20313;-19
2024/01/28 03:00:38;;;;;;;5.78;2.70;;;2.50;99.90;;;;;;5012626;28;20139;-18
2024/01/28 03:03:04;;;;;;;4.88;2.58;;;2.40;99.90;;;;;;5013264;28;20536;-20
2024/01/28 03:05:30;;;;;;;4.82;2.25;;;2.40;99.90;;;;;;5000067;28;20431;-19
2024/01/28 03:07:56;;;;;;;4.50;2.60;;;2.40;99.90;;;;;;5013103;28;20052;-19
2024/01/28 03:10:21;;;;;;;5.93;2.77;;;2.40;99.90;;;;;;5014676;28;20282;-19
2024/01/28 03:12:49;;;;;;;4.30;2.80;;;2.40;99.90;;;;;;5014989;28;20048;-20
2024/01/28 03:15:16;;;;;;;4.30;2.40;;;2.40;99.90;;;;;;5002282;28;20481;-20
2024/01/28 03:17:42;;;;;;;5.03;2.38;;;2.40;99.90;;;;;;5011715;28;20045;-19
2024/01/28 03:20:08;;;;;;;4.47;2.25;;;2.30;99.90;;;;;;5013398;28;20060;-18
2024/01/28 03:22:34;;;;;;;5.30;2.17;;;2.30;99.90;;;;;;5017128;28;20132;-19
2024/01/28 03:25:00;;;;;;;5.30;2.58;;;2.30;99.90;;;;;;5013202;28;20037;-19
2024/01/28 03:27:26;;;;;;;3.63;2.17;;;2.30;99.90;;;;;;5016189;28;20040;-18
2024/01/28 03:29:51;;;;;;;5.28;2.90;;;2.20;99.90;;;;;;5004344;28;20045;-19
2024/01/28 03:32:17;;;;;;;4.80;2.33;;;2.30;99.90;;;;;;5012289;28;20038;-20
2024/01/28 03:34:43;;;;;;;3.78;2.20;;;2.20;99.90;;;;;;5014185;28;20041;-19
2024/01/28 03:37:08;;;;;;;4.23;2.20;;;2.20;99.90;;;;;;5013638;28;20390;-19
2024/01/28 03:39:34;;;;;;;5.35;2.35;;;2.20;99.90;;;;;;5014584;28;20609;-19
2024/01/28 03:42:00;;;;;;;4.57;2.10;;;2.20;99.90;;;;;;4978702;28;20057;-21
2024/01/28 03:44:25;;;;;;;5.32;2.50;;;2.20;99.90;;;;;;5013968;28;20049;-21
2024/01/28 03:46:54;;;;;;;4.70;1.90;;;2.20;99.90;;;;;;4979960;28;20213;-22
2024/01/28 03:49:19;;;;;;;5.40;2.33;;;2.20;99.90;;;;;;5016643;28;20040;-22
2024/01/28 03:51:46;;;;;;;5.57;2.40;;;2.20;99.90;;;;;;5016977;28;20045;-19
2024/01/28 03:54:12;;;;;;;5.93;2.20;;;2.20;99.90;;;;;;4996659;28;20470;-19
2024/01/28 03:56:40;;;;;;;4.78;2.10;;;2.20;99.90;;;;;;4993497;28;20120;-19
2024/01/28 03:59:06;;;;;;;4.35;2.35;;;2.20;99.90;;;;;;4999286;28;20215;-20
2024/01/28 04:01:33;;;;;;;5.18;2.17;;;2.20;99.90;;;;;;5014967;28;20107;-19
2024/01/28 04:03:59;;;;;;;5.13;2.20;;;2.30;99.90;;;;;;5012492;28;20383;-18
2024/01/28 04:06:25;;;;;;;6.10;2.33;;;0.30;99.90;;;;;;4996667;28;20089;-18
2024/01/28 04:08:57;;;;;;;4.22;2.33;;;2.10;99.90;;;;;;5000812;28;20065;-19
2024/01/28 04:11:25;;;;;;;5.65;1.90;;;-0.20;99.90;;;;;;4997103;28;20084;-21
2024/01/28 04:13:51;;;;;;;5.72;2.58;;;2.10;99.90;;;;;;5012376;28;20465;-18
2024/01/28 04:16:17;;;;;;;4.77;2.07;;;2.10;99.90;;;;;;4982253;28;20104;-20
2024/01/28 04:18:42;;;;;;;4.32;2.22;;;4.40;99.90;;;;;;5017001;28;20107;-20
2024/01/28 04:21:09;;;;;;;5.17;2.17;;;2.10;99.90;;;;;;5013141;28;20033;-17
2024/01/28 04:23:34;;;;;;;5.50;2.13;;;2.10;99.90;;;;;;5011929;28;20286;-20
2024/01/28 04:26:00;;;;;;;5.25;2.17;;;2.10;99.90;;;;;;5010595;28;20029;-20
2024/01/28 04:28:26;;;;;;;4.67;2.20;;;2.10;99.90;;;;;;4999319;28;20042;-19
2024/01/28 04:30:52;;;;;;;4.32;2.50;;;2.00;99.90;;;;;;4997655;28;20108;-21
2024/01/28 04:33:18;;;;;;;7.23;2.53;;;2.00;99.90;;;;;;5012256;28;20037;-20
2024/01/28 04:35:43;;;;;;;4.25;2.33;;;2.00;99.90;;;;;;5013662;28;20038;-20
2024/01/28 04:38:09;;;;;;;4.60;2.30;;;2.00;99.90;;;;;;5014636;28;20053;-19
2024/01/28 04:40:34;;;;;;;5.18;2.40;;;2.00;99.90;;;;;;5010430;28;20136;-19
2024/01/28 04:43:00;;;;;;;4.87;2.47;;;2.00;99.90;;;;;;5013470;28;20115;-19
2024/01/28 04:45:26;;;;;;;4.03;2.05;;;2.00;99.90;;;;;;5000162;28;20060;-20
2024/01/28 04:47:52;;;;;;;4.13;2.67;;;2.00;99.90;;;;;;5012743;28;20184;-18
2024/01/28 04:50:17;;;;;;;5.03;2.10;;;2.00;99.90;;;;;;5014892;28;20551;-19
2024/01/28 04:52:43;;;;;;;4.73;2.10;;;1.90;99.90;;;;;;4985516;28;20037;-19
2024/01/28 04:55:09;;;;;;;5.10;2.67;;;1.90;99.90;;;;;;4997500;28;20230;-19
2024/01/28 04:57:35;;;;;;;3.90;2.15;;;1.90;99.90;;;;;;4998823;28;20421;-18
2024/01/28 05:00:00;;;;;;;3.90;1.87;;;2.00;99.90;;;;;;5009968;28;20030;-20
2024/01/28 05:02:26;;;;;;;3.90;1.87;;;1.90;99.90;;;;;;5013643;28;20045;-21
2024/01/28 05:04:52;;;;;;;3.95;2.30;;;1.90;99.90;;;;;;5015369;28;20103;-27
2024/01/28 05:07:18;;;;;;;4.33;2.10;;;1.90;99.90;;;;;;5012325;28;20029;-22
2024/01/28 05:09:43;;;;;;;4.97;2.10;;;1.90;99.90;;;;;;5012978;28;20065;-24
2024/01/28 05:12:09;;;;;;;4.83;2.23;;;4.10;99.90;;;;;;5013260;28;20179;-20
2024/01/28 05:14:34;;;;;;;3.50;1.85;;;2.00;99.90;;;;;;5013891;28;20053;-19
2024/01/28 05:17:01;;;;;;;3.70;2.00;;;2.00;99.90;;;;;;5010821;28;20052;-18
2024/01/28 05:19:27;;;;;;;4.13;1.98;;;2.00;99.90;;;;;;5012629;28;20530;-20
2024/01/28 05:21:53;;;;;;;4.30;2.10;;;2.00;99.90;;;;;;5013634;28;20036;-19
2024/01/28 05:24:18;;;;;;;3.40;1.90;;;2.00;99.90;;;;;;4987531;28;20069;-27
2024/01/28 05:26:44;;;;;;;5.10;2.10;;;2.00;99.90;;;;;;5012519;28;20057;-25
2024/01/28 05:29:10;;;;;;;3.70;2.03;;;2.00;99.90;;;;;;4999118;28;20032;-21
2024/01/28 05:31:36;;;;;;;4.18;1.85;;;2.00;99.90;;;;;;5011958;28;20691;-21
2024/01/28 05:34:02;;;;;;;5.63;2.00;;;2.00;99.90;;;;;;5013514;28;20025;-25
2024/01/28 05:36:29;;;;;;;3.47;1.70;;;2.00;99.90;;;;;;5011272;28;20445;-24
2024/01/28 05:38:54;;;;;;;3.00;1.75;;;2.00;99.90;;;;;;4961485;28;20124;-21
2024/01/28 05:41:20;;;;;;;4.47;2.00;;;2.00;99.90;;;;;;5012087;28;20128;-21
2024/01/28 05:43:47;;;;;;;4.23;2.03;;;2.10;99.90;;;;;;5000240;28;20109;-20
2024/01/28 05:46:13;;;;;;;3.88;1.70;;;2.00;99.90;;;;;;5011185;28;20045;-21
2024/01/28 05:48:38;;;;;;;4.55;2.17;;;2.10;99.90;;;;;;5013845;28;20391;-21
2024/01/28 05:51:04;;;;;;;4.27;1.80;;;2.00;99.90;;;;;;4993230;28;20410;-21
2024/01/28 05:53:30;;;;;;;3.03;1.63;;;2.00;99.90;;;;;;4996143;28;20053;-24
2024/01/28 05:55:55;;;;;;;4.87;1.70;;;2.00;99.90;;;;;;5009895;28;20080;-22
2024/01/28 05:58:22;;;;;;;3.95;1.85;;;2.00;99.90;;;;;;5011225;28;20072;-21
2024/01/28 06:00:48;;;;;;;3.30;1.67;;;2.00;99.90;;;;;;5010688;28;21461;-21
2024/01/28 06:03:14;;;;;;;3.17;1.92;;;2.00;99.90;;;;;;5006007;28;20080;-24
2024/01/28 06:05:40;;;;;;;3.30;1.80;;;1.90;99.90;;;;;;5013807;28;20116;-21
2024/01/28 06:08:07;;;;;;;6.43;1.90;;;1.90;99.90;;;;;;5011948;28;20033;-21
2024/01/28 06:10:32;;;;;;;4.97;1.90;;;1.90;99.90;;;;;;5012066;28;20042;-21
2024/01/28 06:12:58;;;;;;;3.35;1.77;;;1.90;99.90;;;;;;4981457;28;20616;-20
2024/01/28 06:15:24;;;;;;;4.30;1.90;;;1.90;99.90;;;;;;5009802;28;20128;-19
2024/01/28 06:17:50;;;;;;;3.63;1.48;;;1.80;99.90;;;;;;5011101;28;20041;-20
2024/01/28 06:20:16;;;;;;;3.30;1.73;;;1.80;99.90;;;;;;4981181;28;20440;-19
2024/01/28 06:22:42;;;;;;;3.58;1.90;;;3.20;99.90;;;;;;4995298;28;20328;-19
2024/01/28 06:25:08;;;;;;;4.38;1.85;;;1.80;99.90;;;;;;5011235;28;20646;-25
2024/01/28 06:27:34;;;;;;;4.03;1.80;;;1.80;99.90;;;;;;4999448;28;20429;-23
2024/01/28 06:29:59;;;;;;;3.28;1.70;;;1.80;99.90;;;;;;5011842;28;20018;-23
2024/01/28 06:32:25;;;;;;;4.00;1.90;;;1.80;99.90;;;;;;4998005;28;20534;-22
2024/01/28 06:34:52;;;;;;;3.65;1.83;;;1.80;99.90;;;;;;5003342;28;20711;-20
2024/01/28 06:37:18;;;;;;;3.42;1.70;;;1.80;99.90;;;;;;4997811;28;20409;-19
2024/01/28 06:39:46;;;;;;;3.65;1.73;;;1.80;99.90;;;;;;5005858;28;20033;-19
2024/01/28 06:42:12;;;;;;;5.53;2.00;;;1.80;99.90;;;;;;5003250;28;20540;-19
2024/01/28 06:44:38;;;;;;;3.47;1.77;;;1.80;99.90;;;;;;5016524;28;20042;-19
2024/01/28 06:47:06;;;;;;;3.67;1.60;;;1.80;99.90;;;;;;5010799;28;21013;-17
2024/01/28 06:49:31;;;;;;;2.30;1.53;;;1.80;99.90;;;;;;5014879;28;20512;-19
2024/01/28 06:51:57;;;;;;;3.92;1.63;;;1.80;99.90;;;;;;5010950;28;20116;-19
2024/01/28 06:54:23;;;;;;;3.40;1.57;;;1.80;99.90;;;;;;5004276;28;20060;-20
2024/01/28 06:56:49;;;;;;;3.63;1.58;;;1.80;99.90;;;;;;5013341;28;20061;-19
2024/01/28 06:59:15;;;;;;;3.03;1.40;;;1.80;99.90;;;;;;5015241;28;20033;-19
2024/01/28 07:01:40;;;;;;;3.50;1.80;;;1.80;99.90;;;;;;5012523;28;20025;-19
2024/01/28 07:04:06;;;;;;;3.55;1.48;;;1.80;99.90;;;;;;5015179;28;20049;-19
2024/01/28 07:06:32;;;;;;;5.20;1.70;;;1.80;99.90;;;;;;5014937;28;20464;-19
2024/01/28 07:08:58;;;;;;;3.55;1.65;;;1.80;99.90;;;;;;5011600;28;20030;-19
2024/01/28 07:11:24;;;;;;;2.93;1.83;;;1.90;99.90;;;;;;5010270;28;20354;-19
2024/01/28 07:13:49;;;;;;;3.85;1.55;;;1.80;99.90;;;;;;4981114;28;20041;-19
2024/01/28 07:16:15;;;;;;;4.32;2.00;;;1.80;99.90;;;;;;5013996;28;20025;-19
2024/01/28 07:18:41;;;;;;;2.87;1.60;;;1.80;99.90;;;;;;4999485;28;20029;-20
2024/01/28 07:21:07;;;;;;;3.15;1.63;;;1.80;99.90;;;;;;4995638;28;20091;-18
2024/01/28 07:23:32;;;;;;;3.70;1.70;;;1.80;99.90;;;;;;5015276;28;20083;-21
2024/01/28 07:25:58;;;;;;;3.13;1.60;;;1.80;99.90;;;;;;5015632;28;20100;-23
2024/01/28 07:28:24;;;;;;;4.33;1.60;;;1.80;99.90;;;;;;5014857;28;20029;-25
2024/01/28 07:30:50;;;;;;;4.25;2.05;;;1.90;99.90;;;;;;5015891;28;20098;-20
2024/01/28 07:33:17;;;;;;;5.43;2.00;;;1.80;99.90;;;;;;5012226;28;20130;-23
2024/01/28 07:35:42;;;;;;;3.70;1.90;;;1.80;99.90;;;;;;5014198;28;20728;-22
2024/01/28 07:38:09;;;;;;;4.10;1.92;;;1.90;99.90;;;;;;5018290;28;20061;-21
2024/01/28 07:40:35;;;;;;;3.45;2.00;;;1.90;99.90;;;;;;5007659;28;20409;-23
2024/01/28 07:43:00;;;;;;;4.63;2.20;;;1.90;99.90;;;;;;5012141;28;20056;-21
2024/01/28 07:45:26;;;;;;;3.53;1.83;;;1.90;99.90;;;;;;5012263;28;20486;-23
2024/01/28 07:47:52;;;;;;;3.63;1.80;;;1.90;99.90;;;;;;5011526;28;20044;-24
2024/01/28 07:50:19;;;;;;;3.55;1.77;;;2.00;99.90;;;;;;4995181;28;20360;-20
2024/01/28 07:52:44;;;;;;;6.75;2.10;;;2.00;99.90;;;;;;5013944;28;20265;-21
2024/01/28 07:55:11;;;;;;;4.67;1.97;;;2.00;99.90;;;;;;4994509;28;20512;-25
2024/01/28 07:57:37;;;;;;;4.80;2.20;;;2.10;99.90;;;;;;5011619;28;20037;-23
2024/01/28 08:00:06;;;;;;;3.63;1.70;;;2.10;99.90;;;;;;4998050;28;20545;-23
2024/01/28 08:02:32;;;;;;;4.05;2.10;;;2.10;99.90;;;;;;5011954;28;20034;-22
2024/01/28 08:04:59;;;;;;;4.63;2.20;;;2.20;99.90;;;;;;4992926;28;20096;-22
2024/01/28 08:07:25;;;;;;;4.30;2.35;;;2.40;99.90;;;;;;5012487;28;20037;-21
2024/01/28 08:09:51;;;;;;;5.82;2.40;;;2.60;99.90;;;;;;4995633;28;20098;-24
2024/01/28 08:12:17;;;;;;;5.27;2.40;;;2.70;99.90;;;;;;5010199;28;20038;-22
2024/01/28 08:14:42;;;;;;;4.35;2.38;;;2.90;99.90;;;;;;4998294;28;20060;-22
2024/01/28 08:17:08;;;;;;;4.20;2.10;;;3.00;99.90;;;;;;5010329;28;20029;-25
2024/01/28 08:19:36;;;;;;;4.72;2.20;;;3.20;99.90;;;;;;4994973;28;20512;-23
2024/01/28 08:22:02;;;;;;;5.32;2.40;;;1.20;99.90;;;;;;5013698;28;20029;-26
2024/01/28 08:24:27;;;;;;;3.70;2.00;;;3.50;99.90;;;;;;5007711;28;20036;-22
2024/01/28 08:26:53;;;;;;;3.30;1.90;;;3.60;99.90;;;;;;5008727;28;20048;-23
2024/01/28 08:29:19;;;;;;;4.03;2.13;;;2.70;99.90;;;;;;5008106;28;20037;-23
2024/01/28 08:31:45;;;;;;;4.23;2.20;;;3.60;99.90;;;;;;5010874;28;20045;-22
2024/01/28 08:34:10;;;;;;;4.55;2.20;;;3.70;99.90;;;;;;4982053;28;20171;-18
2024/01/28 08:36:36;;;;;;;3.77;2.10;;;3.70;99.90;;;;;;5010956;28;20045;-20
2024/01/28 08:39:04;;;;;;;4.60;2.35;;;3.80;99.90;;;;;;4989615;28;20459;-21
2024/01/28 08:41:30;;;;;;;4.68;2.10;;;3.90;99.90;;;;;;4995635;28;20056;-19
2024/01/28 08:43:56;;;;;;;4.90;2.27;;;3.90;99.90;;;;;;5013533;28;20033;-24
2024/01/28 08:46:22;;;;;;;4.67;2.07;;;4.00;99.90;;;;;;4994744;28;20248;-24
2024/01/28 08:48:47;;;;;;;3.77;2.00;;;4.00;99.90;;;;;;4995457;28;20635;-21
2024/01/28 08:51:13;;;;;;;3.97;2.10;;;4.00;99.90;;;;;;5005150;28;20615;-25
2024/01/28 08:53:38;;;;;;;4.53;2.27;;;4.10;99.90;;;;;;5011194;28;20276;-25
2024/01/28 08:56:05;;;;;;;4.47;2.10;;;4.20;99.90;;;;;;5013295;28;20052;-23
2024/01/28 08:58:31;;;;;;;3.70;2.10;;;4.30;99.90;;;;;;4993863;28;20070;-23
2024/01/28 09:00:56;;;;;;;4.20;2.20;;;4.30;99.90;;;;;;4992950;28;20432;-22
2024/01/28 09:03:22;;;;;;;3.63;2.25;;;4.50;99.90;;;;;;5013398;28;20041;-22
2024/01/28 09:05:48;;;;;;;4.83;1.93;;;4.60;99.90;;;;;;4997786;28;20485;-23
2024/01/28 09:08:14;;;;;;;3.97;2.17;;;4.70;99.90;;;;;;5011921;28;20108;-22
2024/01/28 09:10:39;;;;;;;5.10;2.50;;;4.90;99.90;;;;;;5012059;28;20648;-21
2024/01/28 09:13:05;;;;;;;4.05;2.30;;;5.10;99.90;;;;;;4998666;28;20087;-22
2024/01/28 09:15:31;;;;;;;5.23;2.17;;;5.20;99.90;;;;;;5012105;28;20069;-23
2024/01/28 09:17:56;;;;;;;4.60;2.33;;;5.40;99.90;;;;;;4985059;28;20052;-23
2024/01/28 09:20:22;;;;;;;4.40;2.00;;;5.60;99.90;;;;;;5012056;28;20071;-23
2024/01/28 09:22:48;;;;;;;4.85;2.15;;;5.90;99.90;;;;;;5008411;28;20705;-23
2024/01/28 09:25:14;;;;;;;3.63;2.07;;;5.90;99.90;;;;;;5009466;28;20056;-21
2024/01/28 09:27:39;;;;;;;3.80;2.25;;;6.10;99.90;;;;;;5011013;28;20100;-22
2024/01/28 09:30:06;;;;;;;3.90;2.10;;;6.30;99.90;;;;;;5012405;28;20033;-23
2024/01/28 09:32:32;;;;;;;3.50;2.20;;;6.50;99.90;;;;;;4993966;28;20654;-24
2024/01/28 09:34:57;;;;;;;4.85;2.28;;;6.60;99.90;;;;;;5012801;28;20478;-22
2024/01/28 09:37:23;;;;;;;3.67;2.27;;;6.90;99.90;;;;;;5010606;28;20040;-21
2024/01/28 09:39:49;;;;;;;4.35;2.30;;;7.00;99.90;;;;;;5012654;28;20060;-24
2024/01/28 09:42:37;;;;;;;3.90;2.25;;;7.30;99.90;;;;;;5014220;28;20652;-23
2024/01/28 09:45:04;;;;;;;4.10;2.50;;;7.50;99.90;;;;;;5011297;28;20273;-23
2024/01/28 09:47:32;;;;;;;15.50;2.50;;;7.80;99.90;;;;;;4995646;28;20060;-25
2024/01/28 09:50:00;;;;;;;59.10;3.05;;;8.10;99.90;;;;;;4993397;28;20026;-23
2024/01/28 09:52:27;;;;;;;8.75;2.30;;;8.50;99.90;;;;;;4995737;28;20042;-25
2024/01/28 09:54:52;;;;;;;26.52;2.72;;;9.00;99.90;;;;;;4997110;28;20072;-20
2024/01/28 09:57:18;;;;;;;12.13;2.80;;;9.40;99.90;;;;;;4990814;28;20065;-20
2024/01/28 09:59:46;;;;;;;5.05;2.22;;;9.90;99.90;;;;;;4997534;28;20052;-21
2024/01/28 10:02:14;;;;;;;3.35;2.00;;;10.40;99.90;;;;;;4994751;28;20445;-19
2024/01/28 10:04:40;;;;;;;4.05;1.80;;;11.00;99.90;;;;;;5002132;28;20394;-20
2024/01/28 10:07:09;;;;;;;3.43;1.90;;;11.50;99.90;;;;;;4997988;28;20040;-19
2024/01/28 10:09:34;;;;;;;2.95;1.75;;;11.90;99.90;;;;;;4999920;28;20045;-20
2024/01/28 10:12:01;;;;;;;2.63;1.60;;;12.40;99.90;;;;;;4981700;28;20037;-21
2024/01/28 10:14:27;;;;;;;4.43;2.73;;;12.80;99.90;;;;;;5014542;28;20346;-20
2024/01/28 10:16:53;;;;;;;6.38;3.38;;;13.10;99.90;;;;;;5016028;28;20034;-19
2024/01/28 10:19:19;;;;;;;4.38;2.40;;;13.50;99.90;;;;;;5014352;28;20204;-20
2024/01/28 10:21:45;;;;;;;3.72;2.25;;;13.70;99.90;;;;;;4998984;28;20246;-20
2024/01/28 10:24:11;;;;;;;4.03;2.10;;;14.00;99.90;;;;;;5013676;28;20450;-20
2024/01/28 10:26:38;;;;;;;3.75;2.03;;;14.30;99.90;;;;;;5011645;28;20540;-19
2024/01/28 10:29:07;;;;;;;3.42;1.80;;;14.50;99.90;;;;;;5013991;28;20104;-20
2024/01/28 10:31:33;;;;;;;2.70;1.83;;;14.80;99.90;;;;;;4999047;28;20045;-20
2024/01/28 10:33:58;;;;;;;2.57;1.70;;;15.10;99.90;;;;;;5000860;28;20064;-21
2024/01/28 10:36:25;;;;;;;2.88;1.70;;;15.40;99.90;;;;;;4997909;28;20061;-21
2024/01/28 10:38:53;;;;;;;2.40;1.60;;;15.70;99.90;;;;;;5002331;28;20120;-21
2024/01/28 10:41:19;;;;;;;2.70;1.65;;;15.90;99.90;;;;;;5012430;28;20091;-19
2024/01/28 10:43:55;;;;;;;2.70;1.70;;;16.10;99.90;;;;;;5012700;28;20085;-19
2024/01/28 10:46:37;;;;;;;2.55;1.65;;;16.30;99.90;;;;;;5012980;28;20025;-19
2024/01/28 10:49:05;;;;;;;2.70;1.70;;;16.50;99.90;;;;;;5002697;28;20472;-20
2024/01/28 10:51:33;;;;;;;2.45;1.63;;;16.70;99.90;;;;;;5016907;28;20069;-20
2024/01/28 10:54:00;;;;;;;2.13;1.50;;;16.90;99.90;;;;;;5015951;28;20413;-26
2024/01/28 10:56:27;;;;;;;2.40;1.60;;;17.10;99.90;;;;;;5011886;28;20037;-23
2024/01/28 10:58:53;;;;;;;3.13;1.77;;;17.20;99.90;;;;;;5014330;28;20104;-23
2024/01/28 11:01:19;;;;;;;3.42;2.10;;;17.30;99.90;;;;;;5000033;28;20496;-24
2024/01/28 11:03:46;;;;;;;3.80;1.90;;;17.50;99.90;;;;;;5012849;28;20049;-23
2024/01/28 11:06:17;;;;;;;3.08;1.60;;;17.60;99.90;;;;;;4998940;28;20037;-23
2024/01/28 11:08:43;;;;;;;2.97;1.70;;;17.80;99.90;;;;;;5012725;28;20200;-23
2024/01/28 11:11:09;;;;;;;2.60;1.67;;;17.90;99.90;;;;;;4980630;28;20465;-22
2024/01/28 11:13:35;;;;;;;2.88;1.73;;;18.00;99.90;;;;;;5011230;28;20034;-23
2024/01/28 11:16:00;;;;;;;3.97;1.67;;;18.00;99.90;;;;;;4997683;28;20042;-22
2024/01/28 11:18:29;;;;;;;2.53;1.70;;;18.10;99.90;;;;;;5012860;28;20041;-24
2024/01/28 11:20:55;;;;;;;3.23;1.53;;;18.10;99.90;;;;;;5017193;28;20037;-22
2024/01/28 11:23:21;;;;;;;2.00;1.50;;;18.20;99.90;;;;;;4999756;28;20033;-24
2024/01/28 11:25:47;;;;;;;2.55;1.48;;;18.30;99.90;;;;;;5014433;28;20033;-24
2024/01/28 11:28:15;;;;;;;3.07;1.50;;;18.50;99.90;;;;;;5011599;28;20041;-24
2024/01/28 11:30:40;;;;;;;2.35;1.60;;;18.60;99.90;;;;;;5012863;28;20449;-22
2024/01/28 11:33:14;;;;;;;3.63;1.70;;;18.80;99.90;;;;;;5012089;28;20038;-21
2024/01/28 11:35:44;;;;;;;2.92;1.60;;;19.00;99.90;;;;;;5010116;28;20171;-21
2024/01/28 11:38:15;;;;;;;3.07;1.50;;;19.10;99.90;;;;;;5008848;28;20041;-21
2024/01/28 11:40:46;;;;;;;3.03;1.75;;;19.20;99.90;;;;;;5011562;28;20762;-23
2024/01/28 11:43:13;;;;;;;2.97;1.73;;;19.30;99.90;;;;;;5010739;28;20547;-22
2024/01/28 11:45:39;;;;;;;2.83;1.60;;;19.30;99.90;;;;;;5011590;28;20073;-22
2024/01/28 11:48:09;;;;;;;3.20;1.85;;;19.40;99.90;;;;;;5012434;28;20041;-22
2024/01/28 11:50:35;;;;;;;3.47;1.90;;;19.50;99.90;;;;;;4995522;28;20038;-22
2024/01/28 11:53:05;;;;;;;2.28;1.70;;;19.60;99.90;;;;;;5011549;28;20399;-23
2024/01/28 11:55:30;;;;;;;3.17;1.80;;;19.70;99.90;;;;;;5010310;28;20438;-21
2024/01/28 11:57:56;;;;;;;2.35;1.55;;;19.70;99.90;;;;;;5012079;28;20041;-26
2024/01/28 12:00:25;;;;;;;2.47;1.50;;;19.80;99.90;;;;;;5013520;28;20057;-24
2024/01/28 12:02:51;;;;;;;3.35;1.60;;;19.80;99.90;;;;;;5014062;28;20034;-23
2024/01/28 12:05:17;;;;;;;2.70;1.90;;;19.80;99.90;;;;;;5014352;28;20246;-19
2024/01/28 12:07:42;;;;;;;3.58;1.80;;;19.80;99.90;;;;;;4998265;28;20130;-20
2024/01/28 12:10:12;;;;;;;3.23;1.60;;;19.80;99.90;;;;;;5008544;28;20042;-20
2024/01/28 12:12:42;;;;;;;3.22;1.60;;;19.90;99.90;;;;;;5010367;28;20129;-19
2024/01/28 12:15:11;;;;;;;2.47;1.65;;;19.90;99.90;;;;;;4995630;28;20049;-20
2024/01/28 12:17:38;;;;;;;2.83;1.70;;;19.90;99.90;;;;;;4994130;28;20038;-20
2024/01/28 12:20:05;;;;;;;4.45;2.08;;;19.90;99.90;;;;;;5012011;28;20473;-20
2024/01/28 12:22:40;;;;;;;5.68;2.50;;;19.90;99.90;;;;;;4988187;28;20050;-19
2024/01/28 12:25:13;;;;;;;6.78;2.95;;;19.90;99.90;;;;;;5010479;28;20052;-21
2024/01/28 12:27:40;;;;;;;5.35;2.60;;;19.90;99.90;;;;;;4998195;28;20040;-25
2024/01/28 12:30:09;;;;;;;3.87;2.10;;;20.00;99.90;;;;;;5012045;28;20033;-22
2024/01/28 12:32:39;;;;;;;2.90;1.70;;;20.00;99.90;;;;;;5010644;28;20041;-21
2024/01/28 12:35:07;;;;;;;3.22;1.90;;;20.10;99.90;;;;;;4993002;28;20038;-21
2024/01/28 12:37:34;;;;;;;2.95;1.52;;;20.10;99.90;;;;;;5011011;28;20149;-24
2024/01/28 12:40:00;;;;;;;2.63;1.70;;;20.20;99.90;;;;;;4998710;28;20080;-25
2024/01/28 12:42:26;;;;;;;3.00;1.50;;;20.30;99.90;;;;;;5010780;28;20044;-22
2024/01/28 12:44:52;;;;;;;2.25;1.63;;;20.40;99.90;;;;;;5011031;28;20068;-22
2024/01/28 12:47:18;;;;;;;2.50;1.70;;;20.40;99.90;;;;;;5010931;28;20069;-28
2024/01/28 12:49:43;;;;;;;2.97;1.70;;;20.50;99.90;;;;;;4999143;28;20347;-21
2024/01/28 12:52:09;;;;;;;2.13;1.60;;;20.60;99.90;;;;;;5007490;28;20072;-22